createdAt,value
2018-07-08T00:00:06.907Z,61.34
2018-07-08T00:02:34.945Z,61.84
2018-07-08T00:05:02.979Z,61.52
2018-07-08T00:07:31.011Z,61.76
2018-07-08T00:09:59.052Z,61.91
2018-07-08T00:12:27.067Z,61.75
2018-07-08T00:14:55.152Z,61.90
2018-07-08T00:17:23.179Z,61.81
2018-07-08T00:19:51.217Z,61.89
2018-07-08T00:22:19.239Z,62.12
2018-07-08T00:24:47.287Z,62.09
2018-07-08T00:27:15.307Z,62.28
2018-07-08T00:29:43.340Z,62.24
2018-07-08T00:32:11.372Z,62.47
2018-07-08T00:34:39.403Z,62.44
2018-07-08T00:37:07.433Z,62.27
2018-07-08T00:39:35.472Z,62.38
2018-07-08T00:42:03.484Z,62.46
2018-07-08T00:44:31.527Z,62.90
2018-07-08T00:46:59.560Z,63.02
2018-07-08T00:49:27.607Z,62.81
2018-07-08T00:51:55.660Z,63.02
2018-07-08T00:54:23.696Z,62.80
2018-07-08T00:56:51.732Z,62.96
2018-07-08T00:59:19.780Z,62.92
2018-07-08T01:01:47.872Z,63.52
2018-07-08T01:04:15.841Z,63.41
2018-07-08T01:06:43.864Z,63.40
2018-07-08T01:09:11.908Z,63.35
2018-07-08T01:11:39.929Z,63.97
2018-07-08T01:14:07.988Z,63.82
2018-07-08T01:16:36.048Z,63.80
2018-07-08T01:19:04.148Z,63.62
2018-07-08T01:21:32.185Z,63.99
2018-07-08T01:24:00.234Z,63.89
2018-07-08T01:26:28.268Z,64.36
2018-07-08T01:28:56.305Z,64.48
2018-07-08T01:31:24.337Z,64.27
2018-07-08T01:33:52.378Z,64.49
2018-07-08T01:36:20.400Z,64.69
2018-07-08T01:38:48.430Z,64.65
2018-07-08T01:41:16.484Z,64.54
2018-07-08T01:43:44.509Z,64.64
2018-07-08T01:46:12.549Z,64.58
2018-07-08T01:48:40.580Z,65.11
2018-07-08T01:51:08.612Z,65.01
2018-07-08T01:53:36.640Z,65.13
2018-07-08T01:56:05.326Z,65.02
2018-07-08T01:58:33.347Z,64.96
2018-07-08T02:01:01.434Z,64.89
2018-07-08T02:03:29.462Z,65.49
2018-07-08T02:05:57.492Z,65.27
2018-07-08T02:08:25.498Z,65.33
2018-07-08T02:10:53.536Z,65.39
2018-07-08T02:13:21.571Z,65.63
2018-07-08T02:15:49.607Z,66.02
2018-07-08T02:18:17.647Z,65.79
2018-07-08T02:20:45.684Z,65.64
2018-07-08T02:23:13.720Z,65.68
2018-07-08T02:25:41.747Z,65.84
2018-07-08T02:28:09.772Z,65.53
2018-07-08T02:30:37.815Z,65.74
2018-07-08T02:33:05.850Z,65.66
2018-07-08T02:35:34.701Z,65.55
2018-07-08T02:38:02.726Z,65.77
2018-07-08T02:40:30.761Z,65.36
2018-07-08T02:42:58.785Z,65.81
2018-07-08T02:45:26.864Z,65.84
2018-07-08T02:47:54.879Z,65.57
2018-07-08T02:50:23.231Z,65.80
2018-07-08T02:52:51.260Z,65.86
2018-07-08T02:55:19.315Z,65.67
2018-07-08T02:57:47.354Z,65.94
2018-07-08T03:00:15.404Z,65.84
2018-07-08T03:02:43.437Z,65.90
2018-07-08T03:05:11.512Z,65.77
2018-07-08T03:07:39.547Z,65.84
2018-07-08T03:10:07.589Z,66.02
2018-07-08T03:12:35.633Z,65.87
2018-07-08T03:15:03.728Z,66.05
2018-07-08T03:17:31.773Z,66.00
2018-07-08T03:19:59.828Z,66.19
2018-07-08T03:22:27.872Z,65.86
2018-07-08T03:24:55.905Z,66.53
2018-07-08T03:27:23.932Z,66.03
2018-07-08T03:29:52.176Z,66.15
2018-07-08T03:32:20.215Z,66.70
2018-07-08T03:34:48.244Z,66.76
2018-07-08T03:37:16.280Z,66.86
2018-07-08T03:39:44.327Z,66.88
2018-07-08T03:42:12.368Z,66.77
2018-07-08T03:44:40.388Z,66.75
2018-07-08T03:47:08.416Z,66.41
2018-07-08T03:49:36.757Z,66.72
2018-07-08T03:52:04.795Z,66.67
2018-07-08T03:54:33.152Z,66.83
2018-07-08T03:57:01.179Z,67.22
2018-07-08T03:59:29.205Z,67.22
2018-07-08T04:01:57.236Z,67.01
2018-07-08T04:04:25.256Z,67.25
2018-07-08T04:06:53.289Z,67.43
2018-07-08T04:09:21.320Z,67.25
2018-07-08T04:11:49.644Z,67.37
2018-07-08T04:14:17.684Z,67.05
2018-07-08T04:16:46.302Z,67.28
2018-07-08T04:19:14.408Z,67.02
2018-07-08T04:21:42.443Z,67.19
2018-07-08T04:24:10.528Z,67.18
2018-07-08T04:26:38.564Z,66.90
2018-07-08T04:29:06.600Z,66.81
2018-07-08T04:31:34.662Z,67.18
2018-07-08T04:34:02.711Z,67.20
2018-07-08T04:36:30.736Z,66.98
2018-07-08T04:38:58.795Z,66.86
2018-07-08T04:41:26.860Z,66.92
2018-07-08T04:43:54.883Z,66.81
2018-07-08T04:46:22.932Z,66.92
2018-07-08T04:48:50.965Z,66.47
2018-07-08T04:51:18.991Z,66.52
2018-07-08T04:53:47.025Z,66.21
2018-07-08T04:56:15.061Z,66.50
2018-07-08T04:58:43.112Z,66.28
2018-07-08T05:01:11.136Z,66.33
2018-07-08T05:03:39.161Z,66.13
2018-07-08T05:06:07.199Z,66.10
2018-07-08T05:08:35.260Z,65.74
2018-07-08T05:11:03.287Z,65.78
2018-07-08T05:13:31.340Z,65.70
2018-07-08T05:15:59.360Z,65.39
2018-07-08T05:18:27.407Z,65.37
2018-07-08T05:20:55.432Z,65.12
2018-07-08T05:23:23.503Z,65.38
2018-07-08T05:25:51.531Z,64.80
2018-07-08T05:28:19.560Z,64.66
2018-07-08T05:30:47.613Z,64.25
2018-07-08T05:33:15.660Z,63.75
2018-07-08T05:35:43.715Z,64.21
2018-07-08T05:38:11.716Z,64.20
2018-07-08T05:40:39.756Z,63.84
2018-07-08T05:43:07.792Z,63.57
2018-07-08T05:45:35.815Z,63.49
2018-07-08T05:48:03.852Z,63.47
2018-07-08T05:50:31.943Z,63.01
2018-07-08T05:52:59.925Z,63.18
2018-07-08T05:55:27.952Z,62.97
2018-07-08T05:57:55.993Z,62.34
2018-07-08T06:00:24.034Z,62.52
2018-07-08T06:02:52.063Z,62.46
2018-07-08T06:05:20.088Z,62.47
2018-07-08T06:07:48.131Z,62.02
2018-07-08T06:10:16.159Z,62.10
2018-07-08T06:12:44.200Z,61.94
2018-07-08T06:15:12.224Z,60.91
2018-07-08T06:17:40.264Z,61.30
2018-07-08T06:20:09.484Z,61.33
2018-07-08T06:22:37.533Z,61.31
2018-07-08T06:25:05.651Z,60.92
2018-07-08T06:27:33.688Z,60.63
2018-07-08T06:30:01.729Z,59.91
2018-07-08T06:32:29.762Z,59.94
2018-07-08T06:34:57.808Z,59.35
2018-07-08T06:37:25.840Z,59.19
2018-07-08T06:39:53.878Z,59.05
2018-07-08T06:42:21.912Z,59.28
2018-07-08T06:44:49.988Z,57.72
2018-07-08T06:47:18.020Z,57.46
2018-07-08T06:49:46.080Z,57.95
2018-07-08T06:52:14.116Z,57.49
2018-07-08T06:54:42.170Z,57.00
2018-07-08T06:57:10.195Z,57.18
2018-07-08T06:59:38.223Z,56.52
2018-07-08T07:02:06.283Z,56.40
2018-07-08T07:04:34.324Z,56.17
2018-07-08T07:07:02.351Z,55.54
2018-07-08T07:09:30.395Z,55.57
2018-07-08T07:11:58.410Z,55.03
2018-07-08T07:14:26.441Z,53.76
2018-07-08T07:16:54.463Z,54.95
2018-07-08T07:19:22.527Z,53.79
2018-07-08T07:21:50.553Z,53.90
2018-07-08T07:24:18.623Z,53.86
2018-07-08T07:26:46.670Z,53.59
2018-07-08T07:29:14.707Z,52.45
2018-07-08T07:31:42.736Z,52.29
2018-07-08T07:34:10.806Z,51.59
2018-07-08T07:36:38.839Z,52.55
2018-07-08T07:39:06.969Z,51.79
2018-07-08T07:41:35.096Z,51.26
2018-07-08T07:44:03.132Z,51.47
2018-07-08T07:46:31.172Z,50.62
2018-07-08T07:48:59.212Z,48.98
2018-07-08T07:51:27.245Z,49.46
2018-07-08T07:53:55.301Z,49.91
2018-07-08T07:56:23.348Z,49.75
2018-07-08T07:58:51.388Z,49.41
2018-07-08T08:01:19.552Z,47.76
2018-07-08T08:03:47.629Z,48.51
2018-07-08T08:06:15.691Z,47.24
2018-07-08T08:08:43.746Z,47.29
2018-07-08T08:11:11.785Z,46.83
2018-07-08T08:13:50.021Z,47.02
2018-07-08T08:16:18.021Z,46.27
2018-07-08T08:18:46.076Z,46.11
2018-07-08T08:21:14.116Z,45.67
2018-07-08T08:23:42.175Z,45.37
2018-07-08T08:26:10.226Z,45.06
2018-07-08T08:28:38.256Z,44.61
2018-07-08T08:31:06.307Z,42.77
2018-07-08T08:33:34.863Z,42.39
2018-07-08T08:36:02.911Z,43.41
2018-07-08T08:38:30.964Z,42.94
2018-07-08T08:40:59.015Z,43.07
2018-07-08T08:43:27.071Z,42.55
2018-07-08T08:45:55.128Z,41.96
2018-07-08T08:48:23.172Z,41.88
2018-07-08T08:50:51.225Z,41.33
2018-07-08T08:53:19.299Z,41.30
2018-07-08T08:55:47.372Z,41.36
2018-07-08T08:58:15.425Z,40.99
2018-07-08T09:00:43.476Z,40.26
2018-07-08T09:03:11.552Z,40.15
2018-07-08T09:05:39.606Z,39.25
2018-07-08T09:08:07.636Z,39.10
2018-07-08T09:10:35.746Z,38.85
2018-07-08T09:13:03.785Z,39.34
2018-07-08T09:15:31.814Z,38.25
2018-07-08T09:17:59.857Z,38.34
2018-07-08T09:20:27.890Z,38.71
2018-07-08T09:22:55.936Z,38.51
2018-07-08T09:25:23.981Z,38.13
2018-07-08T09:27:52.024Z,37.78
2018-07-08T09:30:20.065Z,37.32
2018-07-08T09:32:48.125Z,36.53
2018-07-08T09:35:16.167Z,35.84
2018-07-08T09:37:44.212Z,35.85
2018-07-08T09:40:12.252Z,35.51
2018-07-08T09:42:40.301Z,36.07
2018-07-08T09:45:08.328Z,35.26
2018-07-08T09:47:36.363Z,35.25
2018-07-08T09:50:04.416Z,35.02
2018-07-08T09:52:32.487Z,35.15
2018-07-08T09:55:00.531Z,35.01
2018-07-08T09:57:28.616Z,33.97
2018-07-08T09:59:56.659Z,34.21
2018-07-08T10:02:24.706Z,34.42
2018-07-08T10:04:52.751Z,34.49
2018-07-08T10:07:20.791Z,33.59
2018-07-08T10:09:48.828Z,34.79
2018-07-08T10:12:16.900Z,34.08
2018-07-08T10:14:44.940Z,33.80
2018-07-08T10:17:12.983Z,32.90
2018-07-08T10:19:41.108Z,33.04
2018-07-08T10:22:09.072Z,32.88
2018-07-08T10:24:37.120Z,32.40
2018-07-08T10:27:22.716Z,32.61
2018-07-08T10:29:50.749Z,32.85
2018-07-08T10:32:18.783Z,33.07
2018-07-08T10:34:46.824Z,33.34
2018-07-08T10:37:14.870Z,32.76
2018-07-08T10:39:42.920Z,32.62
2018-07-08T10:42:10.999Z,33.44
2018-07-08T10:44:39.075Z,32.94
2018-07-08T10:47:07.128Z,33.36
2018-07-08T10:49:35.163Z,33.39
2018-07-08T10:52:03.211Z,33.27
2018-07-08T10:54:31.293Z,32.19
2018-07-08T10:56:59.349Z,33.30
2018-07-08T10:59:27.419Z,33.39
2018-07-08T11:01:55.477Z,33.36
2018-07-08T11:04:23.508Z,32.39
2018-07-08T11:06:51.564Z,32.10
2018-07-08T11:09:19.636Z,32.62
2018-07-08T11:11:47.680Z,33.21
2018-07-08T11:14:15.724Z,32.64
2018-07-08T11:16:43.761Z,32.16
2018-07-08T11:19:11.869Z,32.51
2018-07-08T11:21:39.900Z,32.21
2018-07-08T11:24:07.954Z,32.37
2018-07-08T11:26:35.997Z,32.44
2018-07-08T11:29:04.075Z,33.27
2018-07-08T11:31:32.115Z,32.70
2018-07-08T11:34:00.168Z,32.24
2018-07-08T11:36:28.204Z,32.27
2018-07-08T11:38:56.252Z,32.46
2018-07-08T11:41:24.283Z,31.94
2018-07-08T11:43:52.365Z,32.41
2018-07-08T11:46:20.392Z,32.62
2018-07-08T11:48:48.472Z,31.87
2018-07-08T11:51:16.516Z,32.34
2018-07-08T11:53:44.608Z,32.02
2018-07-08T11:56:12.668Z,31.13
2018-07-08T11:58:40.712Z,30.85
2018-07-08T12:01:08.759Z,31.96
2018-07-08T12:03:36.812Z,31.91
2018-07-08T12:06:04.916Z,31.78
2018-07-08T12:08:32.968Z,31.57
2018-07-08T12:11:01.024Z,30.82
2018-07-08T12:13:29.075Z,31.01
2018-07-08T12:15:57.132Z,31.53
2018-07-08T12:18:25.208Z,30.67
2018-07-08T12:20:53.256Z,31.46
2018-07-08T12:23:21.303Z,30.54
2018-07-08T12:25:49.348Z,30.44
2018-07-08T12:28:17.395Z,30.98
2018-07-08T12:30:45.450Z,30.67
2018-07-08T12:33:13.548Z,30.30
2018-07-08T12:35:41.596Z,30.21
2018-07-08T12:38:09.677Z,30.37
2018-07-08T12:40:37.733Z,30.44
2018-07-08T12:43:05.904Z,30.24
2018-07-08T12:45:33.960Z,30.39
2018-07-08T12:48:02.012Z,30.70
2018-07-08T12:50:30.065Z,30.41
2018-07-08T12:52:58.125Z,30.13
2018-07-08T12:55:26.180Z,29.99
2018-07-08T12:57:54.225Z,29.49
2018-07-08T13:00:22.286Z,30.47
2018-07-08T13:02:50.328Z,29.95
2018-07-08T13:05:18.392Z,30.06
2018-07-08T13:07:46.440Z,30.63
2018-07-08T13:10:14.495Z,29.65
2018-07-08T13:12:42.548Z,30.10
2018-07-08T13:15:10.639Z,30.69
2018-07-08T13:17:38.695Z,30.29
2018-07-08T13:20:06.792Z,29.65
2018-07-08T13:22:34.880Z,30.55
2018-07-08T13:25:02.942Z,30.55
2018-07-08T13:27:31.006Z,30.11
2018-07-08T13:29:59.081Z,30.69
2018-07-08T13:32:27.168Z,30.58
2018-07-08T13:34:55.196Z,30.68
2018-07-08T13:37:23.241Z,31.11
2018-07-08T13:39:51.305Z,30.83
2018-07-08T13:42:19.345Z,30.97
2018-07-08T13:44:47.422Z,30.23
2018-07-08T13:47:15.468Z,30.28
2018-07-08T13:49:43.540Z,30.95
2018-07-08T13:52:11.602Z,31.21
2018-07-08T13:54:39.685Z,30.60
2018-07-08T13:57:07.737Z,31.78
2018-07-08T13:59:35.807Z,31.07
2018-07-08T14:02:03.837Z,31.95
2018-07-08T14:04:31.896Z,31.97
2018-07-08T14:06:59.928Z,31.51
2018-07-08T14:09:27.984Z,31.51
2018-07-08T14:11:56.024Z,32.07
2018-07-08T14:14:24.083Z,31.46
2018-07-08T14:16:52.191Z,30.90
2018-07-08T14:19:20.266Z,31.38
2018-07-08T14:21:48.315Z,30.84
2018-07-08T14:24:16.379Z,31.62
2018-07-08T14:26:44.423Z,31.17
2018-07-08T14:29:12.498Z,31.20
2018-07-08T14:31:40.527Z,32.19
2018-07-08T14:34:08.889Z,31.41
2018-07-08T14:36:36.920Z,31.55
2018-07-08T14:39:06.254Z,31.50
2018-07-08T14:41:34.625Z,31.84
2018-07-08T14:44:02.660Z,31.72
2018-07-08T14:46:30.756Z,32.35
2018-07-08T14:48:58.800Z,31.59
2018-07-08T14:51:26.844Z,32.46
2018-07-08T14:53:54.891Z,32.68
2018-07-08T14:56:23.561Z,32.92
2018-07-08T14:58:51.928Z,31.99
2018-07-08T15:01:20.076Z,32.46
2018-07-08T15:03:48.112Z,32.91
2018-07-08T15:06:16.187Z,32.25
2018-07-08T15:08:44.196Z,31.81
2018-07-08T15:11:12.268Z,32.51
2018-07-08T15:13:40.303Z,32.58
2018-07-08T15:16:08.392Z,32.42
2018-07-08T15:18:36.390Z,32.10
2018-07-08T15:21:04.469Z,32.75
2018-07-08T15:23:32.504Z,32.67
2018-07-08T15:26:00.548Z,33.60
2018-07-08T15:28:28.860Z,33.17
2018-07-08T15:30:56.905Z,33.36
2018-07-08T15:33:24.936Z,33.24
2018-07-08T15:35:52.981Z,33.79
2018-07-08T15:38:21.021Z,34.24
2018-07-08T15:40:49.064Z,34.12
2018-07-08T15:43:17.108Z,33.33
2018-07-08T15:45:45.145Z,33.28
2018-07-08T15:48:20.045Z,34.67
2018-07-08T15:50:48.092Z,34.42
2018-07-08T15:53:16.124Z,34.37
2018-07-08T15:55:44.180Z,34.32
2018-07-08T15:58:12.220Z,35.29
2018-07-08T16:00:40.262Z,35.31
2018-07-08T16:03:08.291Z,35.39
2018-07-08T16:05:36.344Z,36.00
2018-07-08T16:08:04.394Z,36.27
2018-07-08T16:10:32.432Z,36.48
2018-07-08T16:13:00.464Z,36.38
2018-07-08T16:15:28.508Z,36.96
2018-07-08T16:17:56.536Z,36.99
2018-07-08T16:20:24.572Z,37.33
2018-07-08T16:22:53.031Z,36.82
2018-07-08T16:25:21.112Z,37.72
2018-07-08T16:27:49.140Z,37.98
2018-07-08T16:30:17.231Z,37.69
2018-07-08T16:32:45.249Z,37.50
2018-07-08T16:35:13.292Z,38.58
2018-07-08T16:37:41.336Z,39.13
2018-07-08T16:40:12.611Z,38.35
2018-07-08T16:42:40.896Z,38.63
2018-07-08T16:45:08.936Z,39.08
2018-07-08T16:47:36.979Z,38.67
2018-07-08T16:50:05.040Z,38.91
2018-07-08T16:52:33.113Z,39.26
2018-07-08T16:55:01.153Z,40.48
2018-07-08T16:57:29.200Z,40.35
2018-07-08T16:59:57.235Z,40.74
2018-07-08T17:02:25.305Z,40.26
2018-07-08T17:04:53.312Z,41.14
2018-07-08T17:07:21.389Z,40.45
2018-07-08T17:09:49.448Z,41.23
2018-07-08T17:12:17.484Z,40.70
2018-07-08T17:14:45.530Z,40.88
2018-07-08T17:17:13.568Z,41.43
2018-07-08T17:19:42.252Z,41.53
2018-07-08T17:22:10.279Z,41.48
2018-07-08T17:24:38.393Z,40.92
2018-07-08T17:27:06.454Z,41.16
2018-07-08T17:29:34.489Z,41.21
2018-07-08T17:32:02.528Z,41.65
2018-07-08T17:34:30.551Z,41.50
2018-07-08T17:36:58.592Z,41.83
2018-07-08T17:39:26.661Z,41.79
2018-07-08T17:41:54.704Z,42.03
2018-07-08T17:44:22.739Z,42.28
2018-07-08T17:46:50.795Z,42.49
2018-07-08T17:49:18.845Z,42.39
2018-07-08T17:51:46.896Z,42.75
2018-07-08T17:54:15.036Z,42.33
2018-07-08T17:56:43.096Z,42.00
2018-07-08T17:59:11.144Z,42.97
2018-07-08T18:01:39.187Z,42.62
2018-07-08T18:04:07.264Z,42.51
2018-07-08T18:06:35.320Z,42.92
2018-07-08T18:09:03.611Z,43.17
2018-07-08T18:11:31.552Z,43.61
2018-07-08T18:13:59.611Z,43.82
2018-07-08T18:16:27.651Z,43.93
2018-07-08T18:18:55.708Z,44.07
2018-07-08T18:21:23.796Z,44.13
2018-07-08T18:23:51.819Z,44.10
2018-07-08T18:26:19.856Z,44.45
2018-07-08T18:28:47.895Z,44.68
2018-07-08T18:31:15.944Z,45.27
2018-07-08T18:33:43.996Z,44.96
2018-07-08T18:36:12.041Z,44.84
2018-07-08T18:38:40.487Z,45.28
2018-07-08T18:41:08.539Z,45.48
2018-07-08T18:43:36.603Z,45.66
2018-07-08T18:46:04.914Z,46.28
2018-07-08T18:48:32.952Z,46.14
2018-07-08T18:51:01.153Z,46.26
2018-07-08T18:53:29.236Z,46.20
2018-07-08T18:55:57.305Z,46.40
2018-07-08T18:58:25.365Z,46.91
2018-07-08T19:00:53.636Z,46.89
2018-07-08T19:03:21.697Z,46.74
2018-07-08T19:05:49.756Z,47.11
2018-07-08T19:08:17.840Z,47.00
2018-07-08T19:10:46.180Z,47.26
2018-07-08T19:13:14.296Z,47.23
2018-07-08T19:15:42.371Z,47.93
2018-07-08T19:18:10.420Z,48.04
2018-07-08T19:20:38.463Z,48.28
2018-07-08T19:23:06.571Z,48.46
2018-07-08T19:25:34.671Z,48.56
2018-07-08T19:28:02.692Z,48.49
2018-07-08T19:30:30.793Z,48.00
2018-07-08T19:32:58.792Z,48.18
2018-07-08T19:35:26.837Z,48.71
2018-07-08T19:37:54.876Z,48.96
2018-07-08T19:40:22.938Z,49.49
2018-07-08T19:42:51.012Z,50.28
2018-07-08T19:45:19.092Z,50.27
2018-07-08T19:47:47.157Z,50.16
2018-07-08T19:50:15.232Z,49.92
2018-07-08T19:52:43.269Z,50.47
2018-07-08T19:55:11.306Z,50.75
2018-07-08T19:57:39.361Z,50.93
2018-07-08T20:00:07.728Z,50.42
2018-07-08T20:02:35.812Z,51.65
2018-07-08T20:05:03.840Z,51.10
2018-07-08T20:07:31.919Z,51.63
2018-07-08T20:09:59.923Z,52.02
2018-07-08T20:12:27.962Z,51.63
2018-07-08T20:14:56.031Z,51.63
2018-07-08T20:17:24.424Z,51.89
2018-07-08T20:19:52.463Z,51.82
2018-07-08T20:22:20.490Z,51.90
2018-07-08T20:24:48.532Z,51.97
2018-07-08T20:27:16.555Z,53.21
2018-07-08T20:29:44.964Z,52.71
2018-07-08T20:32:13.030Z,53.05
2018-07-08T20:34:41.040Z,53.36
2018-07-08T20:37:09.084Z,53.40
2018-07-08T20:39:37.129Z,53.42
2018-07-08T20:42:05.161Z,53.51
2018-07-08T20:44:33.217Z,53.31
2018-07-08T20:47:01.528Z,53.37
2018-07-08T20:49:29.567Z,54.01
2018-07-08T20:51:58.437Z,54.64
2018-07-08T20:54:27.264Z,53.75
2018-07-08T20:56:55.307Z,53.62
2018-07-08T20:59:23.340Z,54.05
2018-07-08T21:01:51.379Z,54.64
2018-07-08T21:04:19.415Z,54.76
2018-07-08T21:06:47.440Z,54.88
2018-07-08T21:09:15.490Z,54.71
2018-07-08T21:11:43.519Z,54.53
2018-07-08T21:14:11.555Z,54.63
2018-07-08T21:16:39.584Z,55.38
2018-07-08T21:19:07.645Z,55.03
2018-07-08T21:21:35.775Z,54.92
2018-07-08T21:24:04.051Z,55.46
2018-07-08T21:26:32.084Z,55.38
2018-07-08T21:29:00.175Z,55.13
2018-07-08T21:31:28.192Z,55.94
2018-07-08T21:33:56.245Z,55.17
2018-07-08T21:36:24.272Z,55.78
2018-07-08T21:38:52.304Z,56.30
2018-07-08T21:41:20.337Z,56.39
2018-07-08T21:43:48.372Z,56.26
2018-07-08T21:46:16.437Z,56.31
2018-07-08T21:48:44.529Z,56.58
2018-07-08T21:51:13.256Z,56.42
2018-07-08T21:53:41.376Z,57.50
2018-07-08T21:56:09.417Z,56.68
2018-07-08T21:58:37.440Z,56.73
2018-07-08T22:01:13.912Z,56.93
2018-07-08T22:03:42.489Z,57.02
2018-07-08T22:06:10.533Z,57.08
2018-07-08T22:08:38.553Z,56.85
2018-07-08T22:11:08.035Z,57.61
2018-07-08T22:13:36.519Z,57.19
2018-07-08T22:16:04.895Z,56.86
2018-07-08T22:18:33.364Z,57.30
2018-07-08T22:21:01.848Z,57.68
2018-07-08T22:23:29.984Z,57.57
2018-07-08T22:25:58.395Z,57.67
2018-07-08T22:28:26.447Z,57.80
2018-07-08T22:30:54.496Z,57.80
2018-07-08T22:33:22.527Z,57.42
2018-07-08T22:35:50.556Z,57.97
2018-07-08T22:38:18.576Z,58.63
2018-07-08T22:40:46.613Z,58.38
2018-07-08T22:43:14.677Z,58.40
2018-07-08T22:45:42.715Z,58.64
2018-07-08T22:48:10.735Z,58.74
2018-07-08T22:50:38.768Z,58.80
2018-07-08T22:53:06.823Z,58.95
2018-07-08T22:55:34.856Z,59.12
2018-07-08T22:58:03.145Z,59.51
2018-07-08T23:00:42.561Z,59.03
2018-07-08T23:03:49.830Z,59.35
2018-07-08T23:06:19.123Z,59.08
2018-07-08T23:08:47.602Z,59.57
2018-07-08T23:11:15.640Z,59.82
2018-07-08T23:13:43.804Z,60.20
2018-07-08T23:16:11.823Z,60.44
2018-07-08T23:18:39.848Z,60.14
2018-07-08T23:21:07.996Z,60.62
2018-07-08T23:23:36.019Z,60.86
2018-07-08T23:26:04.150Z,60.71
2018-07-08T23:28:32.570Z,60.52
2018-07-08T23:31:00.624Z,60.68
2018-07-08T23:33:29.222Z,60.86
2018-07-08T23:35:57.247Z,60.49
2018-07-08T23:38:25.284Z,61.18
2018-07-08T23:40:53.319Z,60.94
2018-07-08T23:43:21.343Z,61.28
2018-07-08T23:45:49.381Z,60.95
2018-07-08T23:48:17.408Z,61.58
2018-07-08T23:50:45.445Z,61.29
2018-07-08T23:53:13.480Z,61.26
2018-07-08T23:55:41.534Z,61.89
2018-07-08T23:58:09.547Z,61.70
